sensor_id;sensor_type;location;lat;lon;timestamp;P1;durP1;ratioP1;P2;durP2;ratioP2
51438;SDS011;38816;51.142;-0.974;2023-03-31T00:00:30;24.23;;;3.67;;
51438;SDS011;38816;51.142;-0.974;2023-03-31T00:02:56;24.98;;;2.63;;
51438;SDS011;38816;51.142;-0.974;2023-03-31T00:05:21;12.77;;;2.55;;
51438;SDS011;38816;51.142;-0.974;2023-03-31T00:07:51;19.13;;;2.47;;
51438;SDS011;38816;51.142;-0.974;2023-03-31T00:10:18;22.10;;;2.45;;
51438;SDS011;38816;51.142;-0.974;2023-03-31T00:12:44;22.23;;;2.72;;
51438;SDS011;38816;51.142;-0.974;2023-03-31T00:15:09;29.40;;;2.83;;
51438;SDS011;38816;51.142;-0.974;2023-03-31T00:17:35;20.20;;;2.75;;
51438;SDS011;38816;51.142;-0.974;2023-03-31T00:20:00;18.45;;;2.72;;
51438;SDS011;38816;51.142;-0.974;2023-03-31T00:22:36;19.33;;;2.42;;
51438;SDS011;38816;51.142;-0.974;2023-03-31T00:25:03;24.77;;;2.40;;
51438;SDS011;38816;51.142;-0.974;2023-03-31T00:27:29;14.65;;;2.08;;
51438;SDS011;38816;51.142;-0.974;2023-03-31T00:29:55;11.02;;;2.17;;
51438;SDS011;38816;51.142;-0.974;2023-03-31T00:32:20;14.38;;;1.80;;
51438;SDS011;38816;51.142;-0.974;2023-03-31T00:34:45;15.75;;;1.55;;
51438;SDS011;38816;51.142;-0.974;2023-03-31T00:37:11;14.75;;;1.67;;
51438;SDS011;38816;51.142;-0.974;2023-03-31T00:39:38;12.82;;;1.70;;
51438;SDS011;38816;51.142;-0.974;2023-03-31T00:42:04;16.30;;;2.10;;
51438;SDS011;38816;51.142;-0.974;2023-03-31T00:44:30;19.63;;;2.22;;
51438;SDS011;38816;51.142;-0.974;2023-03-31T00:47:16;19.95;;;1.73;;
51438;SDS011;38816;51.142;-0.974;2023-03-31T00:52:20;11.68;;;2.05;;
51438;SDS011;38816;51.142;-0.974;2023-03-31T00:54:48;20.38;;;2.60;;
51438;SDS011;38816;51.142;-0.974;2023-03-31T00:57:17;20.20;;;2.88;;
51438;SDS011;38816;51.142;-0.974;2023-03-31T00:59:47;21.48;;;2.38;;
51438;SDS011;38816;51.142;-0.974;2023-03-31T01:02:16;24.10;;;2.77;;
51438;SDS011;38816;51.142;-0.974;2023-03-31T01:04:45;17.08;;;2.35;;
51438;SDS011;38816;51.142;-0.974;2023-03-31T01:07:20;23.92;;;2.25;;
51438;SDS011;38816;51.142;-0.974;2023-03-31T01:09:49;12.43;;;2.45;;
51438;SDS011;38816;51.142;-0.974;2023-03-31T01:12:18;22.17;;;2.85;;
51438;SDS011;38816;51.142;-0.974;2023-03-31T01:14:46;17.40;;;3.08;;
51438;SDS011;38816;51.142;-0.974;2023-03-31T01:17:14;25.38;;;2.60;;
51438;SDS011;38816;51.142;-0.974;2023-03-31T01:28:09;25.70;;;3.70;;
51438;SDS011;38816;51.142;-0.974;2023-03-31T01:33:40;40.45;;;4.50;;
51438;SDS011;38816;51.142;-0.974;2023-03-31T01:42:18;40.95;;;3.75;;
51438;SDS011;38816;51.142;-0.974;2023-03-31T01:47:44;37.33;;;4.57;;
51438;SDS011;38816;51.142;-0.974;2023-03-31T01:55:41;44.20;;;5.80;;
51438;SDS011;38816;51.142;-0.974;2023-03-31T01:58:22;48.03;;;6.15;;
51438;SDS011;38816;51.142;-0.974;2023-03-31T02:00:58;51.60;;;6.72;;
51438;SDS011;38816;51.142;-0.974;2023-03-31T02:03:31;51.78;;;5.80;;
51438;SDS011;38816;51.142;-0.974;2023-03-31T02:06:05;57.28;;;5.70;;
51438;SDS011;38816;51.142;-0.974;2023-03-31T02:08:38;53.17;;;7.93;;
51438;SDS011;38816;51.142;-0.974;2023-03-31T02:11:08;56.85;;;6.53;;
51438;SDS011;38816;51.142;-0.974;2023-03-31T02:13:34;47.22;;;5.68;;
51438;SDS011;38816;51.142;-0.974;2023-03-31T02:16:04;56.13;;;6.30;;
51438;SDS011;38816;51.142;-0.974;2023-03-31T02:18:34;51.95;;;6.72;;
51438;SDS011;38816;51.142;-0.974;2023-03-31T02:21:02;58.67;;;6.10;;
51438;SDS011;38816;51.142;-0.974;2023-03-31T02:23:30;61.65;;;7.45;;
51438;SDS011;38816;51.142;-0.974;2023-03-31T02:26:04;52.20;;;6.63;;
51438;SDS011;38816;51.142;-0.974;2023-03-31T02:28:31;53.13;;;7.10;;
51438;SDS011;38816;51.142;-0.974;2023-03-31T02:31:01;57.03;;;7.25;;
51438;SDS011;38816;51.142;-0.974;2023-03-31T02:33:32;58.67;;;7.28;;
51438;SDS011;38816;51.142;-0.974;2023-03-31T02:35:58;42.95;;;5.88;;
51438;SDS011;38816;51.142;-0.974;2023-03-31T02:38:23;51.53;;;6.38;;
51438;SDS011;38816;51.142;-0.974;2023-03-31T02:40:49;41.38;;;5.65;;
51438;SDS011;38816;51.142;-0.974;2023-03-31T02:43:15;51.60;;;5.50;;
51438;SDS011;38816;51.142;-0.974;2023-03-31T02:45:42;49.65;;;6.28;;
51438;SDS011;38816;51.142;-0.974;2023-03-31T02:48:10;54.25;;;5.43;;
51438;SDS011;38816;51.142;-0.974;2023-03-31T02:50:53;52.30;;;5.80;;
51438;SDS011;38816;51.142;-0.974;2023-03-31T02:53:52;50.75;;;6.68;;
51438;SDS011;38816;51.142;-0.974;2023-03-31T02:59:35;57.72;;;6.70;;
51438;SDS011;38816;51.142;-0.974;2023-03-31T03:02:32;53.85;;;7.05;;
51438;SDS011;38816;51.142;-0.974;2023-03-31T03:05:24;70.32;;;6.85;;
51438;SDS011;38816;51.142;-0.974;2023-03-31T03:13:48;63.15;;;6.75;;
51438;SDS011;38816;51.142;-0.974;2023-03-31T03:18:55;74.68;;;8.30;;
51438;SDS011;38816;51.142;-0.974;2023-03-31T03:21:22;60.33;;;6.38;;
51438;SDS011;38816;51.142;-0.974;2023-03-31T03:23:47;60.75;;;6.00;;
51438;SDS011;38816;51.142;-0.974;2023-03-31T03:26:13;59.42;;;8.18;;
51438;SDS011;38816;51.142;-0.974;2023-03-31T03:28:38;58.85;;;6.75;;
51438;SDS011;38816;51.142;-0.974;2023-03-31T03:31:03;54.17;;;6.97;;
51438;SDS011;38816;51.142;-0.974;2023-03-31T03:33:29;59.25;;;6.82;;
51438;SDS011;38816;51.142;-0.974;2023-03-31T03:35:55;57.05;;;6.97;;
51438;SDS011;38816;51.142;-0.974;2023-03-31T03:38:20;59.10;;;6.50;;
51438;SDS011;38816;51.142;-0.974;2023-03-31T03:40:46;51.70;;;6.43;;
51438;SDS011;38816;51.142;-0.974;2023-03-31T03:43:11;50.65;;;6.28;;
51438;SDS011;38816;51.142;-0.974;2023-03-31T03:45:36;43.60;;;5.55;;
51438;SDS011;38816;51.142;-0.974;2023-03-31T03:48:02;45.80;;;5.68;;
51438;SDS011;38816;51.142;-0.974;2023-03-31T03:50:27;48.92;;;5.35;;
51438;SDS011;38816;51.142;-0.974;2023-03-31T03:52:53;44.92;;;5.53;;
51438;SDS011;38816;51.142;-0.974;2023-03-31T03:55:18;44.38;;;4.55;;
51438;SDS011;38816;51.142;-0.974;2023-03-31T03:57:43;44.08;;;5.72;;
51438;SDS011;38816;51.142;-0.974;2023-03-31T04:00:09;38.90;;;4.88;;
51438;SDS011;38816;51.142;-0.974;2023-03-31T04:02:36;41.15;;;4.95;;
51438;SDS011;38816;51.142;-0.974;2023-03-31T04:05:02;39.78;;;4.72;;
51438;SDS011;38816;51.142;-0.974;2023-03-31T04:07:28;46.20;;;5.05;;
51438;SDS011;38816;51.142;-0.974;2023-03-31T04:09:53;43.70;;;5.15;;
51438;SDS011;38816;51.142;-0.974;2023-03-31T04:12:18;52.17;;;6.03;;
51438;SDS011;38816;51.142;-0.974;2023-03-31T04:14:44;45.38;;;5.25;;
51438;SDS011;38816;51.142;-0.974;2023-03-31T04:17:09;27.20;;;4.53;;
51438;SDS011;38816;51.142;-0.974;2023-03-31T04:19:39;52.28;;;6.38;;
51438;SDS011;38816;51.142;-0.974;2023-03-31T04:22:06;49.00;;;6.00;;
51438;SDS011;38816;51.142;-0.974;2023-03-31T04:24:36;49.30;;;6.43;;
51438;SDS011;38816;51.142;-0.974;2023-03-31T04:27:02;44.75;;;4.82;;
51438;SDS011;38816;51.142;-0.974;2023-03-31T04:29:31;53.33;;;5.57;;
51438;SDS011;38816;51.142;-0.974;2023-03-31T04:31:58;40.25;;;5.70;;
51438;SDS011;38816;51.142;-0.974;2023-03-31T04:34:24;37.15;;;4.70;;
51438;SDS011;38816;51.142;-0.974;2023-03-31T04:36:58;40.45;;;5.80;;
51438;SDS011;38816;51.142;-0.974;2023-03-31T04:39:26;36.53;;;3.67;;
51438;SDS011;38816;51.142;-0.974;2023-03-31T04:41:55;37.33;;;4.90;;
51438;SDS011;38816;51.142;-0.974;2023-03-31T04:44:21;31.20;;;4.60;;
51438;SDS011;38816;51.142;-0.974;2023-03-31T04:46:47;30.27;;;3.53;;
51438;SDS011;38816;51.142;-0.974;2023-03-31T04:49:12;30.92;;;3.97;;
51438;SDS011;38816;51.142;-0.974;2023-03-31T04:51:38;25.92;;;2.95;;
51438;SDS011;38816;51.142;-0.974;2023-03-31T04:54:03;26.25;;;3.13;;
51438;SDS011;38816;51.142;-0.974;2023-03-31T04:56:29;25.27;;;3.33;;
51438;SDS011;38816;51.142;-0.974;2023-03-31T04:58:55;27.35;;;3.47;;
51438;SDS011;38816;51.142;-0.974;2023-03-31T05:01:20;23.88;;;3.15;;
51438;SDS011;38816;51.142;-0.974;2023-03-31T05:03:45;21.75;;;3.00;;
51438;SDS011;38816;51.142;-0.974;2023-03-31T05:06:12;26.35;;;2.97;;
51438;SDS011;38816;51.142;-0.974;2023-03-31T05:08:38;24.25;;;3.08;;
51438;SDS011;38816;51.142;-0.974;2023-03-31T05:11:03;19.15;;;3.42;;
51438;SDS011;38816;51.142;-0.974;2023-03-31T05:13:30;29.55;;;3.00;;
51438;SDS011;38816;51.142;-0.974;2023-03-31T05:15:55;26.30;;;3.25;;
51438;SDS011;38816;51.142;-0.974;2023-03-31T05:18:20;25.98;;;3.83;;
51438;SDS011;38816;51.142;-0.974;2023-03-31T05:20:46;24.60;;;3.17;;
51438;SDS011;38816;51.142;-0.974;2023-03-31T05:23:11;32.58;;;4.03;;
51438;SDS011;38816;51.142;-0.974;2023-03-31T05:25:40;32.92;;;3.72;;
51438;SDS011;38816;51.142;-0.974;2023-03-31T05:28:06;29.45;;;4.50;;
51438;SDS011;38816;51.142;-0.974;2023-03-31T05:30:32;35.08;;;4.07;;
51438;SDS011;38816;51.142;-0.974;2023-03-31T05:32:57;36.65;;;4.78;;
51438;SDS011;38816;51.142;-0.974;2023-03-31T05:35:23;52.83;;;5.45;;
51438;SDS011;38816;51.142;-0.974;2023-03-31T05:37:49;54.05;;;5.35;;
51438;SDS011;38816;51.142;-0.974;2023-03-31T05:40:15;40.53;;;5.07;;
51438;SDS011;38816;51.142;-0.974;2023-03-31T05:42:40;45.00;;;4.85;;
51438;SDS011;38816;51.142;-0.974;2023-03-31T05:45:06;43.03;;;5.18;;
51438;SDS011;38816;51.142;-0.974;2023-03-31T05:47:31;41.65;;;4.72;;
51438;SDS011;38816;51.142;-0.974;2023-03-31T05:49:57;46.10;;;5.35;;
51438;SDS011;38816;51.142;-0.974;2023-03-31T05:52:22;46.78;;;4.90;;
51438;SDS011;38816;51.142;-0.974;2023-03-31T05:54:48;42.38;;;4.32;;
51438;SDS011;38816;51.142;-0.974;2023-03-31T05:57:13;47.92;;;5.82;;
51438;SDS011;38816;51.142;-0.974;2023-03-31T05:59:39;41.03;;;4.10;;
51438;SDS011;38816;51.142;-0.974;2023-03-31T06:02:06;47.88;;;5.57;;
51438;SDS011;38816;51.142;-0.974;2023-03-31T06:04:32;51.88;;;5.30;;
51438;SDS011;38816;51.142;-0.974;2023-03-31T06:06:58;41.10;;;5.13;;
51438;SDS011;38816;51.142;-0.974;2023-03-31T06:09:23;62.05;;;5.28;;
51438;SDS011;38816;51.142;-0.974;2023-03-31T06:11:49;44.88;;;5.22;;
51438;SDS011;38816;51.142;-0.974;2023-03-31T06:14:15;50.58;;;5.97;;
51438;SDS011;38816;51.142;-0.974;2023-03-31T06:16:40;44.15;;;4.78;;
51438;SDS011;38816;51.142;-0.974;2023-03-31T06:19:06;46.83;;;5.90;;
51438;SDS011;38816;51.142;-0.974;2023-03-31T06:21:31;53.58;;;5.78;;
51438;SDS011;38816;51.142;-0.974;2023-03-31T06:23:57;49.17;;;5.57;;
51438;SDS011;38816;51.142;-0.974;2023-03-31T06:26:24;46.00;;;5.32;;
51438;SDS011;38816;51.142;-0.974;2023-03-31T06:28:50;42.88;;;5.07;;
51438;SDS011;38816;51.142;-0.974;2023-03-31T06:31:16;59.13;;;6.57;;
51438;SDS011;38816;51.142;-0.974;2023-03-31T06:33:44;49.45;;;5.97;;
51438;SDS011;38816;51.142;-0.974;2023-03-31T06:36:11;40.72;;;5.15;;
51438;SDS011;38816;51.142;-0.974;2023-03-31T06:38:38;41.25;;;5.03;;
51438;SDS011;38816;51.142;-0.974;2023-03-31T06:41:04;49.80;;;6.30;;
51438;SDS011;38816;51.142;-0.974;2023-03-31T06:43:31;49.33;;;5.10;;
51438;SDS011;38816;51.142;-0.974;2023-03-31T06:45:57;57.08;;;6.20;;
51438;SDS011;38816;51.142;-0.974;2023-03-31T06:48:22;47.22;;;5.38;;
51438;SDS011;38816;51.142;-0.974;2023-03-31T06:50:49;44.58;;;5.28;;
51438;SDS011;38816;51.142;-0.974;2023-03-31T06:53:15;67.38;;;6.43;;
51438;SDS011;38816;51.142;-0.974;2023-03-31T06:55:40;46.08;;;5.22;;
51438;SDS011;38816;51.142;-0.974;2023-03-31T06:58:05;48.30;;;6.05;;
51438;SDS011;38816;51.142;-0.974;2023-03-31T07:00:32;45.38;;;5.57;;
51438;SDS011;38816;51.142;-0.974;2023-03-31T07:02:57;56.25;;;6.10;;
51438;SDS011;38816;51.142;-0.974;2023-03-31T07:05:23;57.75;;;6.22;;
51438;SDS011;38816;51.142;-0.974;2023-03-31T07:07:53;42.42;;;5.30;;
51438;SDS011;38816;51.142;-0.974;2023-03-31T07:10:19;55.05;;;5.95;;
51438;SDS011;38816;51.142;-0.974;2023-03-31T07:12:44;44.30;;;6.28;;
51438;SDS011;38816;51.142;-0.974;2023-03-31T07:15:10;58.78;;;6.38;;
51438;SDS011;38816;51.142;-0.974;2023-03-31T07:17:35;49.60;;;5.75;;
51438;SDS011;38816;51.142;-0.974;2023-03-31T07:20:01;57.17;;;7.35;;
51438;SDS011;38816;51.142;-0.974;2023-03-31T07:22:28;44.58;;;6.00;;
51438;SDS011;38816;51.142;-0.974;2023-03-31T07:24:54;42.38;;;5.20;;
51438;SDS011;38816;51.142;-0.974;2023-03-31T07:27:20;47.10;;;5.22;;
51438;SDS011;38816;51.142;-0.974;2023-03-31T07:29:46;46.17;;;5.53;;
51438;SDS011;38816;51.142;-0.974;2023-03-31T07:32:11;42.47;;;4.95;;
51438;SDS011;38816;51.142;-0.974;2023-03-31T07:34:37;37.38;;;4.70;;
51438;SDS011;38816;51.142;-0.974;2023-03-31T07:37:04;44.53;;;5.18;;
51438;SDS011;38816;51.142;-0.974;2023-03-31T07:39:30;34.80;;;5.05;;
51438;SDS011;38816;51.142;-0.974;2023-03-31T07:41:55;45.45;;;5.07;;
51438;SDS011;38816;51.142;-0.974;2023-03-31T07:44:21;38.08;;;4.80;;
51438;SDS011;38816;51.142;-0.974;2023-03-31T07:46:47;30.30;;;3.70;;
51438;SDS011;38816;51.142;-0.974;2023-03-31T07:49:12;41.78;;;5.45;;
51438;SDS011;38816;51.142;-0.974;2023-03-31T07:51:40;31.17;;;3.97;;
51438;SDS011;38816;51.142;-0.974;2023-03-31T07:54:05;35.90;;;4.40;;
51438;SDS011;38816;51.142;-0.974;2023-03-31T07:56:31;37.63;;;4.80;;
51438;SDS011;38816;51.142;-0.974;2023-03-31T07:58:56;35.33;;;4.68;;
51438;SDS011;38816;51.142;-0.974;2023-03-31T08:01:21;31.92;;;4.28;;
51438;SDS011;38816;51.142;-0.974;2023-03-31T08:03:49;45.10;;;4.47;;
51438;SDS011;38816;51.142;-0.974;2023-03-31T08:06:18;28.90;;;3.92;;
51438;SDS011;38816;51.142;-0.974;2023-03-31T08:08:44;32.38;;;4.20;;
51438;SDS011;38816;51.142;-0.974;2023-03-31T08:11:10;33.38;;;4.40;;
51438;SDS011;38816;51.142;-0.974;2023-03-31T08:13:35;36.42;;;4.32;;
51438;SDS011;38816;51.142;-0.974;2023-03-31T08:16:01;26.02;;;4.30;;
51438;SDS011;38816;51.142;-0.974;2023-03-31T08:18:27;36.10;;;4.68;;
51438;SDS011;38816;51.142;-0.974;2023-03-31T08:20:52;30.45;;;4.15;;
51438;SDS011;38816;51.142;-0.974;2023-03-31T08:23:18;35.17;;;4.18;;
51438;SDS011;38816;51.142;-0.974;2023-03-31T08:25:43;29.23;;;4.28;;
51438;SDS011;38816;51.142;-0.974;2023-03-31T08:28:08;35.00;;;3.97;;
51438;SDS011;38816;51.142;-0.974;2023-03-31T08:30:38;33.88;;;5.07;;
51438;SDS011;38816;51.142;-0.974;2023-03-31T08:33:05;23.85;;;3.35;;
51438;SDS011;38816;51.142;-0.974;2023-03-31T08:35:31;27.13;;;3.70;;
51438;SDS011;38816;51.142;-0.974;2023-03-31T08:37:58;19.30;;;3.25;;
51438;SDS011;38816;51.142;-0.974;2023-03-31T08:40:24;20.45;;;2.85;;
51438;SDS011;38816;51.142;-0.974;2023-03-31T08:42:52;20.73;;;4.07;;
51438;SDS011;38816;51.142;-0.974;2023-03-31T08:45:33;15.93;;;3.00;;
51438;SDS011;38816;51.142;-0.974;2023-03-31T08:48:04;18.77;;;2.67;;
51438;SDS011;38816;51.142;-0.974;2023-03-31T08:50:42;30.27;;;3.22;;
51438;SDS011;38816;51.142;-0.974;2023-03-31T08:55:49;16.77;;;2.40;;
51438;SDS011;38816;51.142;-0.974;2023-03-31T09:01:20;11.88;;;2.78;;
51438;SDS011;38816;51.142;-0.974;2023-03-31T09:15:10;15.95;;;2.33;;
51438;SDS011;38816;51.142;-0.974;2023-03-31T09:17:47;10.85;;;1.92;;
51438;SDS011;38816;51.142;-0.974;2023-03-31T09:20:22;14.57;;;2.15;;
51438;SDS011;38816;51.142;-0.974;2023-03-31T09:22:54;13.85;;;2.28;;
51438;SDS011;38816;51.142;-0.974;2023-03-31T09:25:26;10.25;;;1.73;;
51438;SDS011;38816;51.142;-0.974;2023-03-31T09:27:58;10.65;;;2.13;;
51438;SDS011;38816;51.142;-0.974;2023-03-31T09:30:30;12.07;;;1.67;;
51438;SDS011;38816;51.142;-0.974;2023-03-31T09:33:05;14.48;;;1.90;;
51438;SDS011;38816;51.142;-0.974;2023-03-31T09:35:38;9.07;;;1.70;;
51438;SDS011;38816;51.142;-0.974;2023-03-31T09:38:03;5.28;;;1.65;;
51438;SDS011;38816;51.142;-0.974;2023-03-31T09:40:29;8.60;;;1.17;;
51438;SDS011;38816;51.142;-0.974;2023-03-31T09:45:29;7.18;;;1.40;;
51438;SDS011;38816;51.142;-0.974;2023-03-31T09:48:02;8.43;;;1.52;;
51438;SDS011;38816;51.142;-0.974;2023-03-31T09:50:39;7.28;;;1.52;;
51438;SDS011;38816;51.142;-0.974;2023-03-31T09:53:14;9.20;;;1.90;;
51438;SDS011;38816;51.142;-0.974;2023-03-31T09:55:48;5.07;;;1.40;;
51438;SDS011;38816;51.142;-0.974;2023-03-31T09:58:16;7.00;;;1.70;;
51438;SDS011;38816;51.142;-0.974;2023-03-31T10:00:42;7.75;;;1.67;;
51438;SDS011;38816;51.142;-0.974;2023-03-31T10:03:22;7.90;;;1.92;;
51438;SDS011;38816;51.142;-0.974;2023-03-31T10:05:50;6.93;;;1.40;;
51438;SDS011;38816;51.142;-0.974;2023-03-31T10:13:28;4.68;;;1.25;;
51438;SDS011;38816;51.142;-0.974;2023-03-31T10:16:09;5.85;;;1.52;;
51438;SDS011;38816;51.142;-0.974;2023-03-31T10:18:38;9.23;;;1.70;;
51438;SDS011;38816;51.142;-0.974;2023-03-31T10:21:06;3.85;;;1.38;;
51438;SDS011;38816;51.142;-0.974;2023-03-31T10:23:45;4.85;;;1.65;;
51438;SDS011;38816;51.142;-0.974;2023-03-31T10:26:12;4.18;;;1.05;;
51438;SDS011;38816;51.142;-0.974;2023-03-31T10:28:42;2.95;;;0.60;;
51438;SDS011;38816;51.142;-0.974;2023-03-31T10:31:08;6.53;;;0.80;;
51438;SDS011;38816;51.142;-0.974;2023-03-31T10:33:36;2.40;;;0.50;;
51438;SDS011;38816;51.142;-0.974;2023-03-31T10:36:17;5.78;;;0.80;;
51438;SDS011;38816;51.142;-0.974;2023-03-31T10:38:47;1.20;;;0.50;;
51438;SDS011;38816;51.142;-0.974;2023-03-31T10:41:22;3.38;;;0.50;;
51438;SDS011;38816;51.142;-0.974;2023-03-31T10:43:54;1.40;;;0.70;;
51438;SDS011;38816;51.142;-0.974;2023-03-31T10:46:41;0.55;;;0.30;;
51438;SDS011;38816;51.142;-0.974;2023-03-31T10:51:49;2.17;;;0.60;;
51438;SDS011;38816;51.142;-0.974;2023-03-31T10:54:20;2.05;;;0.40;;
51438;SDS011;38816;51.142;-0.974;2023-03-31T10:56:46;0.50;;;0.40;;
51438;SDS011;38816;51.142;-0.974;2023-03-31T10:59:23;2.58;;;0.52;;
51438;SDS011;38816;51.142;-0.974;2023-03-31T11:07:39;1.20;;;0.40;;
51438;SDS011;38816;51.142;-0.974;2023-03-31T11:15:40;1.30;;;0.40;;
51438;SDS011;38816;51.142;-0.974;2023-03-31T11:23:26;0.88;;;0.30;;
51438;SDS011;38816;51.142;-0.974;2023-03-31T11:26:28;3.58;;;0.60;;
51438;SDS011;38816;51.142;-0.974;2023-03-31T11:28:57;1.27;;;0.60;;
51438;SDS011;38816;51.142;-0.974;2023-03-31T11:31:48;0.88;;;0.55;;
51438;SDS011;38816;51.142;-0.974;2023-03-31T11:42:41;1.20;;;0.57;;
51438;SDS011;38816;51.142;-0.974;2023-03-31T11:45:15;0.20;;;0.20;;
51438;SDS011;38816;51.142;-0.974;2023-03-31T11:47:48;2.10;;;0.40;;
51438;SDS011;38816;51.142;-0.974;2023-03-31T11:50:19;0.95;;;0.30;;
51438;SDS011;38816;51.142;-0.974;2023-03-31T11:52:55;1.67;;;0.32;;
51438;SDS011;38816;51.142;-0.974;2023-03-31T11:55:24;1.95;;;0.32;;
51438;SDS011;38816;51.142;-0.974;2023-03-31T12:00:26;0.30;;;0.22;;
51438;SDS011;38816;51.142;-0.974;2023-03-31T12:02:58;0.70;;;0.47;;
51438;SDS011;38816;51.142;-0.974;2023-03-31T12:05:32;0.68;;;0.40;;
51438;SDS011;38816;51.142;-0.974;2023-03-31T12:10:37;0.90;;;0.20;;
51438;SDS011;38816;51.142;-0.974;2023-03-31T12:13:26;0.10;;;0.10;;
51438;SDS011;38816;51.142;-0.974;2023-03-31T12:16:36;0.43;;;0.30;;
51438;SDS011;38816;51.142;-0.974;2023-03-31T12:19:19;0.30;;;0.20;;
51438;SDS011;38816;51.142;-0.974;2023-03-31T12:21:54;0.15;;;0.15;;
51438;SDS011;38816;51.142;-0.974;2023-03-31T12:24:24;1.20;;;0.40;;
51438;SDS011;38816;51.142;-0.974;2023-03-31T12:26:53;0.38;;;0.13;;
51438;SDS011;38816;51.142;-0.974;2023-03-31T12:29:44;0.90;;;0.20;;
51438;SDS011;38816;51.142;-0.974;2023-03-31T12:32:17;0.10;;;0.10;;
51438;SDS011;38816;51.142;-0.974;2023-03-31T12:34:58;0.80;;;0.30;;
51438;SDS011;38816;51.142;-0.974;2023-03-31T12:37:37;0.63;;;0.20;;
51438;SDS011;38816;51.142;-0.974;2023-03-31T12:40:31;0.43;;;0.20;;
51438;SDS011;38816;51.142;-0.974;2023-03-31T12:43:17;1.30;;;0.20;;
51438;SDS011;38816;51.142;-0.974;2023-03-31T12:57:13;0.28;;;0.28;;
51438;SDS011;38816;51.142;-0.974;2023-03-31T12:59:44;0.50;;;0.40;;
51438;SDS011;38816;51.142;-0.974;2023-03-31T13:02:29;0.65;;;0.40;;
51438;SDS011;38816;51.142;-0.974;2023-03-31T13:04:55;0.75;;;0.30;;
51438;SDS011;38816;51.142;-0.974;2023-03-31T13:09:55;1.35;;;0.38;;
51438;SDS011;38816;51.142;-0.974;2023-03-31T13:12:24;0.77;;;0.40;;
51438;SDS011;38816;51.142;-0.974;2023-03-31T13:14:52;1.80;;;0.60;;
51438;SDS011;38816;51.142;-0.974;2023-03-31T13:17:30;1.52;;;0.40;;
51438;SDS011;38816;51.142;-0.974;2023-03-31T13:22:42;0.98;;;0.40;;
51438;SDS011;38816;51.142;-0.974;2023-03-31T13:25:54;0.90;;;0.40;;
51438;SDS011;38816;51.142;-0.974;2023-03-31T13:28:39;0.50;;;0.40;;
51438;SDS011;38816;51.142;-0.974;2023-03-31T13:30:58;0.77;;;0.47;;
51438;SDS011;38816;51.142;-0.974;2023-03-31T13:36:26;1.35;;;0.30;;
51438;SDS011;38816;51.142;-0.974;2023-03-31T13:47:30;1.67;;;0.40;;
51438;SDS011;38816;51.142;-0.974;2023-03-31T13:53:06;1.50;;;0.70;;
51438;SDS011;38816;51.142;-0.974;2023-03-31T13:58:38;2.35;;;0.57;;
51438;SDS011;38816;51.142;-0.974;2023-03-31T14:07:06;0.90;;;0.30;;
51438;SDS011;38816;51.142;-0.974;2023-03-31T14:09:35;5.60;;;0.82;;
51438;SDS011;38816;51.142;-0.974;2023-03-31T14:14:54;1.70;;;0.50;;
51438;SDS011;38816;51.142;-0.974;2023-03-31T14:17:20;1.98;;;0.45;;
51438;SDS011;38816;51.142;-0.974;2023-03-31T14:19:57;1.30;;;0.52;;
51438;SDS011;38816;51.142;-0.974;2023-03-31T14:23:15;1.30;;;0.50;;
51438;SDS011;38816;51.142;-0.974;2023-03-31T14:28:06;2.42;;;0.60;;
51438;SDS011;38816;51.142;-0.974;2023-03-31T14:38:46;2.42;;;0.40;;
51438;SDS011;38816;51.142;-0.974;2023-03-31T14:41:21;0.20;;;0.20;;
51438;SDS011;38816;51.142;-0.974;2023-03-31T14:43:53;1.17;;;0.38;;
51438;SDS011;38816;51.142;-0.974;2023-03-31T14:46:20;1.65;;;0.55;;
51438;SDS011;38816;51.142;-0.974;2023-03-31T14:48:46;1.70;;;0.50;;
51438;SDS011;38816;51.142;-0.974;2023-03-31T14:51:15;2.90;;;0.45;;
51438;SDS011;38816;51.142;-0.974;2023-03-31T14:53:42;0.98;;;0.50;;
51438;SDS011;38816;51.142;-0.974;2023-03-31T14:56:09;2.85;;;0.45;;
51438;SDS011;38816;51.142;-0.974;2023-03-31T14:58:39;1.88;;;0.47;;
51438;SDS011;38816;51.142;-0.974;2023-03-31T15:01:07;1.90;;;0.50;;
51438;SDS011;38816;51.142;-0.974;2023-03-31T15:03:38;2.00;;;0.50;;
51438;SDS011;38816;51.142;-0.974;2023-03-31T15:06:06;1.17;;;0.57;;
51438;SDS011;38816;51.142;-0.974;2023-03-31T15:08:32;0.43;;;0.30;;
51438;SDS011;38816;51.142;-0.974;2023-03-31T15:11:00;1.55;;;0.57;;
51438;SDS011;38816;51.142;-0.974;2023-03-31T15:13:35;3.42;;;0.57;;
51438;SDS011;38816;51.142;-0.974;2023-03-31T15:18:55;4.90;;;0.85;;
51438;SDS011;38816;51.142;-0.974;2023-03-31T15:21:23;2.70;;;0.68;;
51438;SDS011;38816;51.142;-0.974;2023-03-31T15:23:56;1.45;;;0.52;;
51438;SDS011;38816;51.142;-0.974;2023-03-31T15:26:24;0.85;;;0.38;;
51438;SDS011;38816;51.142;-0.974;2023-03-31T15:28:56;4.63;;;0.88;;
51438;SDS011;38816;51.142;-0.974;2023-03-31T15:31:26;3.45;;;0.60;;
51438;SDS011;38816;51.142;-0.974;2023-03-31T15:33:51;2.03;;;0.70;;
51438;SDS011;38816;51.142;-0.974;2023-03-31T15:36:17;1.55;;;0.43;;
51438;SDS011;38816;51.142;-0.974;2023-03-31T15:38:45;6.40;;;1.00;;
51438;SDS011;38816;51.142;-0.974;2023-03-31T15:41:11;1.98;;;0.60;;
51438;SDS011;38816;51.142;-0.974;2023-03-31T15:43:43;1.90;;;0.68;;
51438;SDS011;38816;51.142;-0.974;2023-03-31T15:46:15;4.95;;;0.77;;
51438;SDS011;38816;51.142;-0.974;2023-03-31T15:48:50;3.08;;;0.90;;
51438;SDS011;38816;51.142;-0.974;2023-03-31T15:51:18;1.35;;;0.50;;
51438;SDS011;38816;51.142;-0.974;2023-03-31T15:53:50;1.60;;;0.68;;
51438;SDS011;38816;51.142;-0.974;2023-03-31T15:56:31;2.60;;;0.88;;
51438;SDS011;38816;51.142;-0.974;2023-03-31T15:59:05;4.60;;;0.90;;
51438;SDS011;38816;51.142;-0.974;2023-03-31T16:01:45;7.68;;;1.02;;
51438;SDS011;38816;51.142;-0.974;2023-03-31T16:04:11;3.70;;;0.90;;
51438;SDS011;38816;51.142;-0.974;2023-03-31T16:06:42;3.65;;;0.90;;
51438;SDS011;38816;51.142;-0.974;2023-03-31T16:12:10;2.88;;;1.10;;
51438;SDS011;38816;51.142;-0.974;2023-03-31T16:15:29;4.00;;;0.88;;
51438;SDS011;38816;51.142;-0.974;2023-03-31T16:17:45;4.28;;;0.80;;
51438;SDS011;38816;51.142;-0.974;2023-03-31T16:20:17;1.65;;;0.80;;
51438;SDS011;38816;51.142;-0.974;2023-03-31T16:22:52;4.18;;;0.90;;
51438;SDS011;38816;51.142;-0.974;2023-03-31T16:25:23;0.38;;;0.30;;
51438;SDS011;38816;51.142;-0.974;2023-03-31T16:27:53;2.53;;;0.60;;
51438;SDS011;38816;51.142;-0.974;2023-03-31T16:30:21;3.75;;;0.70;;
51438;SDS011;38816;51.142;-0.974;2023-03-31T16:35:35;2.50;;;0.60;;
51438;SDS011;38816;51.142;-0.974;2023-03-31T16:38:02;2.97;;;0.55;;
51438;SDS011;38816;51.142;-0.974;2023-03-31T16:40:29;2.20;;;0.50;;
51438;SDS011;38816;51.142;-0.974;2023-03-31T16:43:09;2.25;;;0.77;;
51438;SDS011;38816;51.142;-0.974;2023-03-31T16:45:36;2.70;;;0.52;;
51438;SDS011;38816;51.142;-0.974;2023-03-31T16:48:01;3.13;;;0.50;;
51438;SDS011;38816;51.142;-0.974;2023-03-31T16:50:28;1.20;;;0.47;;
51438;SDS011;38816;51.142;-0.974;2023-03-31T16:52:53;0.98;;;0.68;;
51438;SDS011;38816;51.142;-0.974;2023-03-31T16:55:19;4.72;;;0.50;;
51438;SDS011;38816;51.142;-0.974;2023-03-31T16:57:44;1.02;;;0.50;;
51438;SDS011;38816;51.142;-0.974;2023-03-31T17:00:10;1.33;;;0.50;;
51438;SDS011;38816;51.142;-0.974;2023-03-31T17:02:36;2.08;;;0.60;;
51438;SDS011;38816;51.142;-0.974;2023-03-31T17:05:02;2.05;;;0.70;;
51438;SDS011;38816;51.142;-0.974;2023-03-31T17:07:28;0.88;;;0.35;;
51438;SDS011;38816;51.142;-0.974;2023-03-31T17:09:54;1.05;;;0.57;;
51438;SDS011;38816;51.142;-0.974;2023-03-31T17:12:19;3.88;;;0.60;;
51438;SDS011;38816;51.142;-0.974;2023-03-31T17:14:45;0.57;;;0.15;;
51438;SDS011;38816;51.142;-0.974;2023-03-31T17:17:10;5.28;;;0.95;;
51438;SDS011;38816;51.142;-0.974;2023-03-31T17:19:36;1.63;;;0.60;;